Time;durP1;ratioP1;P1;durP2;ratioP2;P2;SDS_P1;SDS_P2;PMS_P1;PMS_P2;Temp;Humidity;BMP_temperature;BMP_pressure;BME280_temperature;BME280_humidity;BME280_pressure;Samples;Min_cycle;Max_cycle;Signal;HPM_P1;HPM_P2
2022/05/03 00:02:27;;;;;;;75.00;58.38;;;18.00;64.30;;;;;;5014482;28;20034;-66
2022/05/03 00:04:52;;;;;;;78.85;59.50;;;18.00;64.30;;;;;;5017153;28;20037;-66
2022/05/03 00:07:28;;;;;;;73.93;58.25;;;18.00;64.40;;;;;;5030283;28;20161;-66
2022/05/03 00:10:19;;;;;;;81.07;61.42;;;17.90;64.30;;;;;;5030616;28;20033;-66
2022/05/03 00:12:49;;;;;;;73.40;57.30;;;18.00;64.40;;;;;;5030507;28;20034;-66
2022/05/03 00:15:16;;;;;;;71.93;57.00;;;17.90;64.40;;;;;;5013909;28;20621;-66
2022/05/03 00:17:41;;;;;;;73.72;56.85;;;18.00;64.40;;;;;;4997854;28;20514;-66
2022/05/03 00:20:08;;;;;;;73.05;55.88;;;17.90;64.40;;;;;;5013832;28;20030;-66
2022/05/03 00:22:34;;;;;;;80.75;60.30;;;17.90;64.40;;;;;;5029960;28;20036;-66
2022/05/03 00:24:59;;;;;;;73.63;57.47;;;17.90;64.40;;;;;;4997424;28;20025;-66
2022/05/03 00:27:27;;;;;;;73.80;55.65;;;18.00;64.50;;;;;;4997743;28;20035;-66
2022/05/03 00:29:53;;;;;;;74.65;57.00;;;18.00;64.50;;;;;;5013672;28;20033;-66
2022/05/03 00:32:20;;;;;;;73.38;57.20;;;18.00;64.50;;;;;;5030230;28;20029;-66
2022/05/03 00:34:46;;;;;;;70.65;56.33;;;17.90;64.40;;;;;;5024567;28;20038;-66
2022/05/03 00:37:12;;;;;;;72.78;56.05;;;17.90;64.40;;;;;;5011329;28;20061;-66
2022/05/03 00:39:38;;;;;;;76.40;59.00;;;18.00;64.50;;;;;;5012667;28;20018;-66
2022/05/03 00:42:08;;;;;;;71.45;56.13;;;17.90;64.50;;;;;;5012398;28;20413;-66
2022/05/03 00:44:55;;;;;;;70.38;55.72;;;18.00;64.60;;;;;;5014152;28;20026;-66
2022/05/03 00:47:31;;;;;;;72.13;55.53;;;18.00;64.60;;;;;;5032277;28;20033;-66
2022/05/03 00:50:02;;;;;;;73.88;57.03;;;18.00;64.70;;;;;;5048220;28;20488;-66
2022/05/03 00:52:52;;;;;;;71.72;56.22;;;17.90;64.70;;;;;;5032051;28;20468;-66
2022/05/03 00:55:55;;;;;;;70.10;53.47;;;18.00;64.70;;;;;;5030866;28;20018;-66
2022/05/03 00:59:00;;;;;;;68.60;54.55;;;18.00;64.80;;;;;;5031954;28;20026;-66
2022/05/03 01:01:50;;;;;;;69.85;53.88;;;17.90;64.80;;;;;;5032249;28;20017;-66
2022/05/03 01:04:20;;;;;;;67.55;52.33;;;17.90;65.00;;;;;;5031987;28;20029;-66
2022/05/03 01:07:17;;;;;;;69.45;53.75;;;17.90;65.00;;;;;;5031860;28;20111;-66
2022/05/03 01:09:53;;;;;;;68.95;54.40;;;18.00;65.00;;;;;;5032014;28;20033;-67
2022/05/03 01:13:00;;;;;;;67.90;52.65;;;17.90;65.00;;;;;;5031787;28;20022;-66
2022/05/03 01:15:30;;;;;;;67.85;52.10;;;17.90;65.00;;;;;;5033065;28;20044;-66
2022/05/03 01:18:26;;;;;;;66.63;53.42;;;17.90;65.10;;;;;;5034690;28;20415;-66
2022/05/03 01:21:16;;;;;;;65.97;51.95;;;17.90;65.10;;;;;;5035503;28;20424;-66
2022/05/03 01:23:51;;;;;;;68.80;52.75;;;17.90;65.10;;;;;;5035878;28;20100;-66
2022/05/03 01:26:29;;;;;;;64.90;50.30;;;17.90;65.10;;;;;;5035542;28;20055;-66
2022/05/03 01:29:27;;;;;;;66.10;51.05;;;17.90;65.10;;;;;;5035679;28;20079;-66
2022/05/03 01:31:58;;;;;;;68.55;52.80;;;17.90;65.10;;;;;;5035743;28;20036;-66
2022/05/03 01:34:24;;;;;;;67.85;52.00;;;17.90;65.20;;;;;;5017856;28;20022;-66
2022/05/03 01:37:00;;;;;;;65.95;50.42;;;17.90;65.20;;;;;;5035646;28;20104;-66
2022/05/03 01:39:59;;;;;;;66.90;50.78;;;17.90;65.20;;;;;;5035438;28;20021;-66
2022/05/03 01:42:28;;;;;;;66.18;51.17;;;17.90;65.20;;;;;;5035181;28;20049;-66
2022/05/03 01:44:58;;;;;;;63.70;50.63;;;17.80;65.20;;;;;;5035110;28;20450;-66
2022/05/03 01:47:56;;;;;;;64.97;51.28;;;17.90;65.20;;;;;;5034220;28;20029;-66
2022/05/03 01:50:50;;;;;;;64.13;49.72;;;17.90;65.20;;;;;;5034184;28;20652;-66
2022/05/03 01:53:36;;;;;;;68.03;51.22;;;17.90;65.30;;;;;;5035221;28;20037;-66
2022/05/03 01:56:39;;;;;;;62.13;50.00;;;17.90;65.40;;;;;;5035108;28;20476;-66
2022/05/03 01:59:12;;;;;;;64.13;49.38;;;17.80;65.30;;;;;;5035123;28;20022;-66
2022/05/03 02:01:41;;;;;;;65.25;50.28;;;17.80;65.50;;;;;;5033940;28;20022;-66
2022/05/03 02:04:43;;;;;;;63.13;50.85;;;17.80;65.40;;;;;;5034699;28;20373;-66
2022/05/03 02:07:26;;;;;;;65.00;49.57;;;17.90;65.50;;;;;;5034982;28;20017;-66
2022/05/03 02:09:59;;;;;;;62.80;49.17;;;17.80;65.50;;;;;;5051407;28;20028;-66
2022/05/03 02:12:24;;;;;;;61.55;49.70;;;17.80;65.50;;;;;;5034638;28;20099;-66
2022/05/03 02:14:54;;;;;;;63.50;50.47;;;17.80;65.50;;;;;;5017402;28;20481;-66
2022/05/03 02:17:51;;;;;;;59.97;48.42;;;17.80;65.50;;;;;;5017424;28;20106;-66
2022/05/03 02:20:56;;;;;;;60.03;47.75;;;17.90;65.60;;;;;;5034609;28;20028;-66
2022/05/03 02:23:43;;;;;;;57.95;47.45;;;17.90;65.60;;;;;;5033584;28;20036;-67
2022/05/03 02:26:30;;;;;;;62.50;48.50;;;17.80;65.60;;;;;;5034183;28;20092;-66
2022/05/03 02:29:02;;;;;;;61.50;48.25;;;17.80;65.60;;;;;;5034472;28;20033;-66
2022/05/03 02:31:32;;;;;;;60.90;47.03;;;17.80;65.70;;;;;;5034650;28;20052;-66
2022/05/03 02:34:18;;;;;;;59.75;48.30;;;17.80;65.60;;;;;;5033158;28;20431;-66
2022/05/03 02:37:06;;;;;;;60.90;47.85;;;17.90;65.70;;;;;;5034603;28;20021;-66
2022/05/03 02:39:32;;;;;;;62.00;47.78;;;17.80;65.70;;;;;;5033169;28;20021;-66
2022/05/03 02:41:59;;;;;;;60.22;47.97;;;17.80;65.80;;;;;;5016488;28;20045;-66
2022/05/03 02:44:30;;;;;;;57.50;46.97;;;17.80;65.70;;;;;;5032852;28;20021;-66
2022/05/03 02:47:06;;;;;;;57.38;46.50;;;17.80;65.70;;;;;;5049802;28;20488;-66
2022/05/03 02:50:03;;;;;;;58.55;45.83;;;17.90;65.80;;;;;;5034147;28;20487;-66
2022/05/03 02:52:31;;;;;;;58.53;47.05;;;17.80;65.70;;;;;;5034006;28;20026;-66
2022/05/03 02:55:03;;;;;;;59.03;47.58;;;17.80;65.70;;;;;;5032935;28;20033;-66
2022/05/03 02:57:53;;;;;;;57.58;46.35;;;17.80;65.80;;;;;;5033938;28;20108;-66
2022/05/03 03:03:21;;;;;;;60.70;46.15;;;17.80;65.90;;;;;;5047425;28;20542;-66
2022/05/03 03:05:49;;;;;;;58.17;45.97;;;17.70;65.80;;;;;;5033880;28;20028;-66
2022/05/03 03:08:19;;;;;;;54.15;43.90;;;17.80;65.90;;;;;;5049510;28;20100;-66
2022/05/03 03:11:04;;;;;;;56.58;45.17;;;17.80;65.90;;;;;;5032755;28;20025;-66
2022/05/03 03:13:58;;;;;;;56.25;44.17;;;17.80;65.80;;;;;;5029484;28;20499;-66
2022/05/03 03:16:31;;;;;;;56.75;45.60;;;17.80;65.90;;;;;;5013538;28;20034;-66
2022/05/03 03:18:58;;;;;;;56.42;45.10;;;17.80;65.90;;;;;;5012647;28;20017;-66
2022/05/03 03:21:27;;;;;;;57.60;43.88;;;17.80;65.90;;;;;;5013542;28;20052;-66
2022/05/03 03:23:53;;;;;;;56.25;44.47;;;17.80;65.90;;;;;;5012732;28;20016;-66
2022/05/03 03:26:20;;;;;;;54.63;43.92;;;17.80;66.00;;;;;;5028793;28;20415;-66
2022/05/03 03:28:46;;;;;;;53.30;43.63;;;17.80;65.90;;;;;;5029053;28;20141;-66
2022/05/03 03:31:12;;;;;;;53.55;43.65;;;17.80;65.90;;;;;;5012219;28;20056;-66
2022/05/03 03:33:37;;;;;;;51.72;43.53;;;17.80;65.90;;;;;;5012373;28;20033;-66
2022/05/03 03:36:03;;;;;;;52.60;43.60;;;17.80;65.90;;;;;;5028662;28;20034;-66
2022/05/03 03:38:37;;;;;;;55.47;44.20;;;17.80;66.90;;;;;;5011387;28;20018;-66
2022/05/03 03:41:03;;;;;;;55.92;43.55;;;17.80;66.00;;;;;;5012049;28;20108;-66
2022/05/03 03:43:29;;;;;;;52.30;43.20;;;17.80;66.00;;;;;;5028796;28;20388;-66
2022/05/03 03:45:54;;;;;;;54.83;44.85;;;17.80;66.00;;;;;;5025467;28;20518;-66
2022/05/03 03:48:20;;;;;;;51.50;42.85;;;17.80;66.00;;;;;;5032015;28;20100;-66
2022/05/03 03:50:45;;;;;;;53.88;43.22;;;17.80;66.00;;;;;;5033005;28;20025;-66
2022/05/03 03:53:11;;;;;;;52.22;41.88;;;17.80;66.00;;;;;;5048281;28;20227;-66
2022/05/03 03:55:37;;;;;;;51.22;43.13;;;17.80;66.10;;;;;;5048090;28;20452;-66
2022/05/03 03:58:02;;;;;;;51.60;42.38;;;17.80;66.10;;;;;;5031870;28;20480;-66
2022/05/03 04:00:28;;;;;;;54.80;43.50;;;17.80;66.10;;;;;;5048171;28;20104;-66
2022/05/03 04:02:54;;;;;;;50.78;42.47;;;17.80;66.10;;;;;;5032727;28;20036;-66
2022/05/03 04:05:21;;;;;;;50.75;42.60;;;17.80;66.10;;;;;;5031540;28;20100;-66
2022/05/03 04:07:47;;;;;;;52.55;43.13;;;17.80;66.10;;;;;;5031604;28;20024;-66
2022/05/03 04:10:12;;;;;;;51.53;42.88;;;17.80;66.10;;;;;;5031626;28;20492;-66
2022/05/03 04:12:38;;;;;;;53.28;42.88;;;17.80;66.10;;;;;;5031287;28;20068;-66
2022/05/03 04:15:04;;;;;;;48.75;40.20;;;17.80;66.10;;;;;;5032447;28;20034;-66
2022/05/03 04:17:30;;;;;;;51.83;41.50;;;17.80;66.20;;;;;;5032477;28;20479;-66
2022/05/03 04:19:56;;;;;;;49.63;41.10;;;17.80;66.10;;;;;;5025902;28;20045;-66
2022/05/03 04:22:34;;;;;;;49.13;40.75;;;17.80;66.20;;;;;;5030391;28;20025;-66
2022/05/03 04:25:00;;;;;;;50.13;40.38;;;17.80;66.20;;;;;;5028733;28;20728;-66
2022/05/03 04:27:27;;;;;;;52.95;42.95;;;17.80;66.20;;;;;;5030419;28;20395;-66
2022/05/03 04:29:53;;;;;;;50.28;40.47;;;17.80;66.30;;;;;;5032394;28;20108;-66
2022/05/03 04:32:18;;;;;;;48.03;40.88;;;17.80;66.30;;;;;;5033278;28;20551;-66
2022/05/03 04:34:44;;;;;;;49.92;41.13;;;17.80;66.30;;;;;;5030231;28;20033;-66
2022/05/03 04:37:10;;;;;;;50.58;40.58;;;17.80;66.40;;;;;;5033443;28;20013;-67
2022/05/03 04:39:35;;;;;;;49.42;40.20;;;17.80;66.40;;;;;;5030304;28;20026;-66
2022/05/03 04:42:01;;;;;;;48.95;40.45;;;17.80;66.30;;;;;;5032271;28;20060;-66
2022/05/03 04:44:27;;;;;;;50.65;40.03;;;17.80;66.30;;;;;;5032205;28;20021;-66
2022/05/03 04:46:53;;;;;;;47.53;38.70;;;17.80;66.30;;;;;;5034752;28;20053;-66
2022/05/03 04:49:18;;;;;;;48.33;40.13;;;17.80;66.40;;;;;;5036401;28;20100;-66
2022/05/03 04:51:44;;;;;;;50.47;41.45;;;17.80;66.40;;;;;;5038869;28;20025;-66
2022/05/03 04:54:10;;;;;;;48.55;39.42;;;17.80;66.40;;;;;;5035662;28;20108;-66
2022/05/03 04:56:36;;;;;;;34.05;27.92;;;17.80;66.50;;;;;;5036726;28;20048;-66
2022/05/03 04:59:02;;;;;;;24.60;21.17;;;17.80;66.20;;;;;;5033255;28;20028;-66
2022/05/03 05:01:28;;;;;;;23.20;18.63;;;17.80;66.10;;;;;;5036774;28;20392;-66
2022/05/03 05:03:54;;;;;;;24.77;21.45;;;17.70;66.00;;;;;;5035935;28;20104;-66
2022/05/03 05:06:20;;;;;;;25.33;20.88;;;17.70;66.00;;;;;;5036690;28;20104;-66
2022/05/03 05:08:46;;;;;;;27.60;22.50;;;17.70;66.00;;;;;;5035473;28;20526;-66
2022/05/03 05:11:12;;;;;;;23.80;20.50;;;17.70;66.00;;;;;;5036527;28;20038;-66
2022/05/03 05:13:38;;;;;;;25.30;21.42;;;17.60;65.90;;;;;;5036353;28;20092;-66
2022/05/03 05:16:05;;;;;;;25.90;21.17;;;17.60;65.90;;;;;;5036269;28;20029;-66
2022/05/03 05:18:31;;;;;;;30.83;22.48;;;17.70;66.00;;;;;;5036131;28;20132;-66
2022/05/03 05:20:56;;;;;;;32.67;22.38;;;17.60;65.90;;;;;;5036661;28;20509;-66
2022/05/03 05:23:22;;;;;;;27.23;20.77;;;17.60;65.90;;;;;;5034914;28;20052;-66
2022/05/03 05:25:48;;;;;;;32.92;21.77;;;17.60;65.90;;;;;;5034174;28;20099;-66
2022/05/03 05:28:15;;;;;;;28.48;21.23;;;17.60;65.90;;;;;;5034460;28;20057;-66
2022/05/03 05:30:41;;;;;;;29.77;21.13;;;17.60;66.90;;;;;;5034204;28;20506;-66
2022/05/03 05:33:07;;;;;;;29.65;21.30;;;17.60;65.90;;;;;;5034450;28;20041;-66
2022/05/03 05:35:32;;;;;;;31.20;21.13;;;17.60;65.90;;;;;;5033415;28;20021;-66
2022/05/03 05:37:58;;;;;;;27.33;19.95;;;17.60;65.90;;;;;;5035326;28;20036;-66
2022/05/03 05:40:24;;;;;;;27.27;20.10;;;17.60;65.80;;;;;;5034914;28;20043;-66
2022/05/03 05:42:50;;;;;;;29.55;20.13;;;17.60;65.80;;;;;;5035521;28;20036;-66
2022/05/03 05:45:16;;;;;;;30.70;19.42;;;17.60;65.80;;;;;;5035324;28;20083;-66
2022/05/03 05:47:42;;;;;;;25.70;19.15;;;17.60;65.90;;;;;;5050552;28;20057;-66
2022/05/03 05:50:12;;;;;;;30.58;19.35;;;17.60;65.80;;;;;;5035481;28;20083;-66
2022/05/03 05:55:22;;;;;;;31.15;18.90;;;17.60;65.90;;;;;;5015301;28;20125;-66
2022/05/03 05:57:47;;;;;;;24.52;18.80;;;17.60;65.90;;;;;;5015349;28;20750;-66
2022/05/03 06:00:14;;;;;;;27.05;18.70;;;17.60;65.80;;;;;;5014838;28;20029;-66
2022/05/03 06:02:40;;;;;;;27.80;18.60;;;17.50;65.80;;;;;;5013555;28;20033;-66
2022/05/03 06:05:06;;;;;;;26.00;18.17;;;17.50;65.80;;;;;;5015366;28;20037;-66
2022/05/03 06:07:32;;;;;;;26.92;18.38;;;17.50;65.70;;;;;;5013972;28;20033;-66
2022/05/03 06:09:58;;;;;;;26.02;17.98;;;17.50;65.80;;;;;;5034494;28;20029;-66
2022/05/03 06:12:23;;;;;;;22.42;17.67;;;17.50;65.80;;;;;;5034991;28;20381;-66
2022/05/03 06:14:49;;;;;;;25.58;18.00;;;17.50;65.70;;;;;;5034696;28;20029;-66
2022/05/03 06:17:14;;;;;;;26.13;18.77;;;17.50;65.70;;;;;;5033679;28;20029;-66
2022/05/03 06:19:40;;;;;;;26.30;17.20;;;17.50;65.70;;;;;;5033463;28;20095;-66
2022/05/03 06:22:06;;;;;;;26.23;18.13;;;17.50;65.70;;;;;;5034797;28;20026;-66
2022/05/03 06:24:31;;;;;;;25.55;16.92;;;17.50;65.80;;;;;;5034439;28;20044;-66
2022/05/03 06:26:58;;;;;;;22.10;17.08;;;17.50;65.70;;;;;;5033483;28;20488;-66
2022/05/03 06:29:24;;;;;;;24.70;17.05;;;17.50;65.70;;;;;;5033262;28;20483;-66
2022/05/03 06:31:50;;;;;;;23.15;16.48;;;17.50;65.70;;;;;;5034576;28;20079;-66
2022/05/03 06:34:16;;;;;;;24.55;16.27;;;17.50;65.70;;;;;;5033338;28;20464;-66
2022/05/03 06:36:42;;;;;;;22.60;16.73;;;17.50;65.70;;;;;;5033034;28;20091;-66
2022/05/03 06:39:07;;;;;;;25.42;16.08;;;17.50;65.70;;;;;;5034207;28;20040;-66
2022/05/03 06:41:33;;;;;;;25.40;16.77;;;17.50;65.70;;;;;;5033995;28;20037;-66
2022/05/03 06:44:02;;;;;;;20.67;15.85;;;17.50;65.70;;;;;;5034074;28;20033;-66
2022/05/03 06:46:28;;;;;;;24.25;16.40;;;17.50;65.70;;;;;;5034133;28;20029;-66
2022/05/03 06:48:53;;;;;;;20.58;15.65;;;17.40;65.60;;;;;;5034203;28;20079;-66
2022/05/03 06:51:19;;;;;;;24.13;15.95;;;17.50;65.70;;;;;;5034250;28;20025;-66
2022/05/03 06:53:45;;;;;;;19.88;15.25;;;17.50;65.70;;;;;;5033418;28;20033;-66
2022/05/03 06:56:11;;;;;;;23.17;16.45;;;17.50;65.70;;;;;;5032848;28;20032;-66
2022/05/03 06:58:36;;;;;;;22.20;15.05;;;17.40;65.60;;;;;;5033959;28;20030;-66
2022/05/03 07:01:13;;;;;;;22.23;15.57;;;17.40;65.60;;;;;;5034026;28;20022;-66
2022/05/03 07:03:39;;;;;;;20.15;14.48;;;17.50;65.60;;;;;;5032834;28;20044;-66
2022/05/03 07:06:05;;;;;;;21.20;15.35;;;17.40;65.60;;;;;;5032710;28;20021;-66
2022/05/03 07:08:31;;;;;;;21.83;14.70;;;17.40;65.60;;;;;;5032263;28;20104;-66
2022/05/03 07:10:57;;;;;;;21.42;14.52;;;17.40;65.70;;;;;;5032464;28;20041;-66
2022/05/03 07:13:26;;;;;;;18.95;14.95;;;17.40;65.60;;;;;;5032796;28;20026;-66
2022/05/03 07:15:52;;;;;;;19.70;14.02;;;17.40;65.60;;;;;;5033474;28;20029;-66
2022/05/03 07:23:46;;;;;;;19.17;14.57;;;17.40;65.60;;;;;;5033282;28;20060;-66
2022/05/03 07:26:12;;;;;;;20.00;14.48;;;17.40;65.70;;;;;;5033516;28;20468;-66
2022/05/03 07:28:38;;;;;;;20.25;14.50;;;17.40;65.70;;;;;;5032133;28;20100;-66
2022/05/03 07:31:04;;;;;;;19.23;14.10;;;17.40;65.60;;;;;;5015603;28;20025;-66
2022/05/03 07:33:29;;;;;;;20.63;14.77;;;17.30;65.60;;;;;;5033617;28;20112;-66
2022/05/03 07:35:55;;;;;;;17.55;13.43;;;17.30;65.50;;;;;;5033001;28;20045;-66
2022/05/03 07:38:21;;;;;;;18.35;13.70;;;17.30;65.50;;;;;;5033096;28;20033;-66
2022/05/03 07:40:46;;;;;;;18.45;13.20;;;17.30;65.60;;;;;;5032876;28;20037;-66
2022/05/03 07:43:12;;;;;;;17.05;13.27;;;17.40;65.60;;;;;;5033135;28;20030;-66
2022/05/03 07:45:38;;;;;;;17.77;14.23;;;17.30;65.50;;;;;;5033165;28;20472;-66
2022/05/03 07:48:04;;;;;;;18.20;14.05;;;17.30;65.50;;;;;;5033207;28;20348;-66
2022/05/03 07:50:30;;;;;;;16.58;13.27;;;17.30;65.50;;;;;;5031935;28;20028;-66
2022/05/03 07:52:56;;;;;;;20.50;14.20;;;17.30;65.50;;;;;;5031378;28;20112;-66
2022/05/03 07:55:21;;;;;;;17.60;13.73;;;17.30;65.50;;;;;;5032922;28;20082;-66
2022/05/03 07:57:47;;;;;;;17.45;13.50;;;17.30;65.50;;;;;;5031575;28;20033;-66
2022/05/03 08:00:13;;;;;;;19.05;13.10;;;17.30;65.50;;;;;;5032872;28;20022;-66
2022/05/03 08:02:39;;;;;;;15.88;13.05;;;17.30;65.50;;;;;;5032846;28;20047;-66
2022/05/03 08:05:04;;;;;;;15.93;13.02;;;17.30;65.50;;;;;;5033082;28;20021;-66
2022/05/03 08:07:30;;;;;;;19.48;12.60;;;17.30;65.50;;;;;;5031270;28;20030;-66
2022/05/03 08:09:56;;;;;;;17.85;13.32;;;17.30;65.50;;;;;;5032700;28;20079;-66
2022/05/03 08:12:22;;;;;;;18.88;12.80;;;17.30;65.50;;;;;;5032675;28;20039;-66
2022/05/03 08:14:47;;;;;;;17.10;12.57;;;17.30;65.50;;;;;;5032778;28;20034;-66
2022/05/03 08:17:13;;;;;;;16.42;12.50;;;17.30;65.50;;;;;;5031143;28;20033;-66
2022/05/03 08:19:39;;;;;;;18.75;13.25;;;17.30;65.40;;;;;;5032650;28;20052;-66
2022/05/03 08:22:05;;;;;;;16.58;12.65;;;17.30;65.40;;;;;;5032244;28;20480;-66
2022/05/03 08:24:30;;;;;;;16.25;12.43;;;17.30;65.40;;;;;;5030881;28;20068;-66
2022/05/03 08:26:56;;;;;;;15.75;11.43;;;17.30;65.50;;;;;;5032256;28;20075;-66
2022/05/03 08:29:22;;;;;;;17.52;11.93;;;17.30;65.40;;;;;;5031296;28;20030;-66
2022/05/03 08:31:48;;;;;;;16.88;11.40;;;17.30;65.40;;;;;;5014615;28;20022;-66
2022/05/03 08:34:14;;;;;;;17.10;11.45;;;17.30;65.40;;;;;;5031120;28;20017;-66
2022/05/03 08:36:40;;;;;;;16.63;11.50;;;17.30;65.40;;;;;;5030772;28;20556;-66
2022/05/03 08:42:02;;;;;;;15.30;11.63;;;17.30;65.40;;;;;;5030843;28;20420;-66
2022/05/03 08:44:31;;;;;;;14.90;11.50;;;17.20;65.40;;;;;;5031272;28;20022;-66
2022/05/03 08:46:57;;;;;;;13.05;11.30;;;17.20;65.40;;;;;;5032093;28;20025;-66
2022/05/03 08:49:24;;;;;;;13.50;10.98;;;17.20;65.50;;;;;;5030816;28;20017;-66
2022/05/03 08:51:51;;;;;;;13.57;10.52;;;17.20;65.40;;;;;;5030731;28;20017;-66
2022/05/03 08:54:17;;;;;;;14.68;11.07;;;17.20;65.40;;;;;;5030856;28;20009;-66
2022/05/03 08:56:42;;;;;;;15.65;11.30;;;17.20;65.40;;;;;;5030746;28;20032;-66
2022/05/03 08:59:08;;;;;;;13.32;10.82;;;17.20;65.40;;;;;;5030990;28;20104;-66
2022/05/03 09:01:34;;;;;;;14.23;10.35;;;17.20;65.50;;;;;;5032175;28;20022;-66
2022/05/03 09:04:00;;;;;;;13.85;10.60;;;17.20;65.40;;;;;;5031832;28;20014;-66
2022/05/03 09:06:46;;;;;;;14.40;10.50;;;17.20;65.40;;;;;;5030896;28;20037;-66
2022/05/03 09:09:12;;;;;;;14.13;11.05;;;17.30;65.30;;;;;;5030955;28;20028;-66
2022/05/03 09:11:58;;;;;;;13.73;9.98;;;17.20;65.40;;;;;;5030822;28;20512;-66
2022/05/03 09:14:41;;;;;;;13.02;9.80;;;17.20;65.30;;;;;;5031879;28;20041;-66
2022/05/03 09:17:07;;;;;;;15.95;10.48;;;17.20;65.30;;;;;;5030701;28;20053;-66
2022/05/03 09:19:33;;;;;;;13.68;11.05;;;17.20;65.50;;;;;;5030560;28;20600;-66
2022/05/03 09:24:55;;;;;;;13.27;9.93;;;17.20;65.40;;;;;;5031165;28;20168;-66
2022/05/03 09:27:22;;;;;;;12.73;9.50;;;17.20;65.40;;;;;;5032068;28;20021;-66
2022/05/03 09:30:00;;;;;;;11.27;9.30;;;17.20;65.50;;;;;;5030548;28;20038;-66
2022/05/03 09:32:44;;;;;;;13.00;9.77;;;17.20;65.40;;;;;;5031511;28;20030;-66
2022/05/03 09:35:35;;;;;;;12.38;10.18;;;17.20;65.40;;;;;;5030340;28;20056;-66
2022/05/03 09:38:03;;;;;;;12.50;9.52;;;17.20;65.30;;;;;;5035480;28;20105;-66
2022/05/03 09:40:34;;;;;;;12.18;9.27;;;17.20;65.50;;;;;;5035575;28;20546;-66
2022/05/03 09:42:59;;;;;;;10.48;8.32;;;17.20;65.50;;;;;;5034129;28;20021;-66
2022/05/03 09:45:26;;;;;;;12.95;9.52;;;17.20;65.50;;;;;;5035479;28;20025;-66
2022/05/03 09:47:56;;;;;;;10.82;8.57;;;17.20;65.40;;;;;;5033814;28;20076;-66
2022/05/03 09:50:44;;;;;;;9.57;8.20;;;17.20;65.40;;;;;;5018004;28;20028;-66
2022/05/03 09:53:10;;;;;;;10.98;8.65;;;17.20;65.20;;;;;;5034161;28;20060;-66
2022/05/03 09:55:37;;;;;;;11.70;8.57;;;17.10;65.40;;;;;;5033769;28;20124;-66
2022/05/03 09:58:04;;;;;;;10.23;8.38;;;17.20;65.50;;;;;;5017693;28;20499;-66
2022/05/03 10:00:31;;;;;;;9.38;7.82;;;17.20;65.50;;;;;;5035242;28;20028;-66
2022/05/03 10:02:58;;;;;;;11.65;8.90;;;17.20;65.50;;;;;;5033432;28;20021;-66
2022/05/03 10:05:24;;;;;;;9.27;8.23;;;17.10;65.40;;;;;;5035205;28;20105;-66
2022/05/03 10:07:50;;;;;;;10.65;8.40;;;17.20;65.50;;;;;;5000762;28;20120;-66
2022/05/03 10:10:16;;;;;;;9.43;7.22;;;17.20;65.40;;;;;;5017310;28;20530;-66
2022/05/03 10:12:42;;;;;;;10.20;7.97;;;17.20;65.50;;;;;;5033669;28;20025;-66
2022/05/03 10:15:09;;;;;;;10.95;8.07;;;17.20;65.40;;;;;;5033440;28;20057;-66
2022/05/03 10:20:40;;;;;;;9.00;7.50;;;17.20;65.40;;;;;;5033706;28;20071;-66
2022/05/03 10:23:21;;;;;;;9.77;8.02;;;17.20;65.50;;;;;;5017135;28;20018;-66
2022/05/03 10:25:47;;;;;;;9.38;7.70;;;17.20;65.40;;;;;;5034536;28;20053;-66
2022/05/03 10:28:13;;;;;;;8.35;7.50;;;17.10;65.40;;;;;;5034617;28;20057;-66
2022/05/03 10:30:39;;;;;;;11.73;8.40;;;17.10;65.40;;;;;;5016780;28;20029;-66
2022/05/03 10:33:20;;;;;;;10.43;7.70;;;17.10;65.50;;;;;;5033051;28;20033;-66
2022/05/03 10:35:46;;;;;;;9.10;7.00;;;17.20;65.40;;;;;;5034181;28;20079;-66
2022/05/03 10:38:12;;;;;;;9.77;7.78;;;17.10;65.50;;;;;;5034323;28;20024;-66
2022/05/03 10:40:47;;;;;;;7.85;7.05;;;17.20;65.50;;;;;;5033222;28;20033;-66
2022/05/03 10:43:25;;;;;;;9.57;7.05;;;17.20;65.40;;;;;;5032825;28;20017;-66
2022/05/03 10:45:56;;;;;;;8.57;6.82;;;17.10;65.50;;;;;;5033038;28;20034;-66
2022/05/03 10:48:29;;;;;;;8.38;7.13;;;17.10;65.50;;;;;;5032652;28;20049;-66
2022/05/03 10:51:00;;;;;;;8.10;6.95;;;17.20;65.50;;;;;;5032822;28;20034;-66
2022/05/03 10:53:27;;;;;;;8.57;7.50;;;17.20;65.50;;;;;;5032861;28;20100;-66
2022/05/03 10:56:18;;;;;;;8.00;6.00;;;17.20;65.50;;;;;;5016504;28;20025;-66
2022/05/03 10:59:12;;;;;;;9.13;7.22;;;17.20;65.30;;;;;;5034022;28;20017;-66
2022/05/03 11:01:56;;;;;;;8.98;6.88;;;17.20;65.30;;;;;;5032595;28;20028;-66
2022/05/03 11:04:25;;;;;;;10.38;6.90;;;17.20;65.50;;;;;;5033943;28;20151;-66
2022/05/03 11:06:51;;;;;;;8.00;6.47;;;17.10;65.50;;;;;;5016131;28;20033;-66
2022/05/03 11:09:26;;;;;;;8.00;6.80;;;17.10;65.50;;;;;;5032717;28;20022;-66
2022/05/03 11:11:53;;;;;;;7.28;6.10;;;17.20;65.50;;;;;;5032432;28;20400;-66
2022/05/03 11:14:19;;;;;;;11.45;6.63;;;17.10;65.50;;;;;;5032275;28;20017;-66
2022/05/03 11:16:45;;;;;;;8.10;6.35;;;17.10;65.50;;;;;;5033623;28;20108;-66
2022/05/03 11:19:15;;;;;;;7.45;6.38;;;17.10;65.40;;;;;;5033429;28;20032;-66
2022/05/03 11:21:41;;;;;;;8.38;6.53;;;17.20;65.50;;;;;;5033557;28;20036;-66
2022/05/03 11:24:20;;;;;;;7.63;6.60;;;17.20;65.50;;;;;;5032119;28;20040;-66
2022/05/03 11:26:53;;;;;;;6.85;6.15;;;17.20;65.40;;;;;;5033483;28;20495;-66
2022/05/03 11:29:19;;;;;;;7.43;6.25;;;17.10;65.40;;;;;;5032252;28;20032;-66
2022/05/03 11:31:48;;;;;;;7.15;6.32;;;17.10;65.40;;;;;;5032004;28;20104;-66
2022/05/03 11:34:14;;;;;;;7.18;6.25;;;17.20;65.50;;;;;;5033382;28;20405;-66
2022/05/03 11:36:43;;;;;;;8.13;6.68;;;17.20;65.60;;;;;;5032052;28;20041;-66
2022/05/03 11:39:09;;;;;;;8.10;6.55;;;17.20;65.50;;;;;;5032143;28;20053;-66
2022/05/03 11:41:36;;;;;;;7.47;6.25;;;17.20;65.50;;;;;;5032145;28;20045;-66
2022/05/03 11:44:02;;;;;;;8.38;6.57;;;17.10;65.40;;;;;;5032814;28;20022;-66
2022/05/03 11:46:27;;;;;;;6.53;5.93;;;17.20;65.50;;;;;;5033275;28;20491;-66
2022/05/03 11:49:01;;;;;;;7.75;6.57;;;17.20;65.50;;;;;;5032978;28;20029;-66
2022/05/03 11:57:10;;;;;;;7.47;6.40;;;17.20;65.50;;;;;;5032924;28;20032;-66
2022/05/03 11:59:37;;;;;;;6.60;5.70;;;17.10;65.50;;;;;;5014546;28;20113;-66
2022/05/03 12:02:15;;;;;;;6.45;5.70;;;17.20;65.60;;;;;;5031484;28;20221;-66
2022/05/03 12:05:20;;;;;;;7.22;6.15;;;17.20;65.50;;;;;;5033096;28;20471;-66
2022/05/03 12:07:55;;;;;;;6.13;5.43;;;17.20;65.40;;;;;;5010586;28;20026;-66
2022/05/03 12:10:24;;;;;;;7.53;5.35;;;17.20;65.60;;;;;;4994586;28;20512;-66
2022/05/03 12:13:07;;;;;;;6.75;5.93;;;17.10;65.60;;;;;;5010630;28;20042;-66
2022/05/03 12:15:48;;;;;;;7.00;5.55;;;17.20;65.50;;;;;;5010705;28;20129;-66
2022/05/03 12:18:18;;;;;;;7.15;5.85;;;17.20;65.60;;;;;;5010627;28;20022;-66
2022/05/03 12:20:47;;;;;;;6.22;5.47;;;17.20;65.60;;;;;;5010645;28;20024;-66
2022/05/03 12:23:22;;;;;;;7.22;5.97;;;17.20;65.60;;;;;;5010415;28;20105;-66
2022/05/03 12:25:50;;;;;;;6.80;5.43;;;17.20;65.60;;;;;;4994386;28;20057;-66
2022/05/03 12:28:16;;;;;;;6.30;5.35;;;17.10;65.60;;;;;;4994065;28;20535;-66
2022/05/03 12:30:42;;;;;;;9.07;5.63;;;17.10;65.50;;;;;;5010549;28;20034;-66
2022/05/03 12:33:08;;;;;;;6.40;5.53;;;17.20;65.60;;;;;;5010432;28;20049;-66
2022/05/03 12:35:38;;;;;;;6.13;5.18;;;17.20;65.60;;;;;;5010267;28;20029;-66
2022/05/03 12:38:12;;;;;;;6.38;5.75;;;17.20;65.60;;;;;;5003667;28;20022;-66
2022/05/03 12:40:54;;;;;;;5.78;5.00;;;17.20;65.50;;;;;;5031014;28;20459;-66
2022/05/03 12:43:26;;;;;;;4.88;4.40;;;17.20;65.50;;;;;;5031940;28;20013;-66
2022/05/03 12:46:07;;;;;;;5.63;5.07;;;17.20;65.60;;;;;;5031157;28;20037;-66
2022/05/03 12:48:36;;;;;;;6.35;5.20;;;17.20;65.50;;;;;;5030989;28;20034;-66
2022/05/03 12:51:02;;;;;;;6.10;5.50;;;17.20;65.60;;;;;;5031009;28;20495;-66
2022/05/03 12:53:31;;;;;;;6.18;5.00;;;17.20;65.60;;;;;;5032288;28;20050;-66
2022/05/03 12:55:58;;;;;;;7.18;5.72;;;17.20;65.60;;;;;;5031833;28;20064;-66
2022/05/03 12:58:26;;;;;;;5.00;4.50;;;17.20;65.60;;;;;;5030036;28;20014;-66
2022/05/03 13:00:53;;;;;;;5.63;5.13;;;17.20;65.60;;;;;;5032108;28;20025;-66
2022/05/03 13:03:21;;;;;;;5.20;4.70;;;17.20;65.60;;;;;;5031002;28;20024;-66
2022/05/03 13:05:46;;;;;;;6.53;4.95;;;17.20;65.60;;;;;;5030735;28;20036;-66
2022/05/03 13:08:12;;;;;;;5.03;4.53;;;17.20;65.60;;;;;;5030773;28;20026;-66
2022/05/03 13:10:38;;;;;;;5.15;4.65;;;17.20;65.60;;;;;;5033750;28;20106;-66
2022/05/03 13:13:04;;;;;;;5.40;4.90;;;17.20;65.60;;;;;;5018451;28;20467;-66
2022/05/03 13:15:30;;;;;;;5.32;4.82;;;17.20;65.60;;;;;;5035962;28;20018;-66
2022/05/03 13:17:57;;;;;;;5.22;4.72;;;17.20;65.60;;;;;;5035981;28;20095;-66